createdAt,value
2018-01-15T00:01:59.475Z,84.54
2018-01-15T00:04:28.586Z,84.52
2018-01-15T00:06:54.552Z,84.55
2018-01-15T00:09:24.660Z,85.11
2018-01-15T00:11:50.602Z,84.90
2018-01-15T00:14:17.741Z,84.97
2018-01-15T00:16:43.729Z,84.96
2018-01-15T00:19:12.098Z,84.95
2018-01-15T00:21:38.117Z,84.90
2018-01-15T00:24:07.221Z,85.07
2018-01-15T00:26:33.209Z,85.19
2018-01-15T00:28:59.140Z,85.39
2018-01-15T00:31:25.156Z,85.20
2018-01-15T00:33:51.134Z,85.16
2018-01-15T00:36:18.579Z,84.96
2018-01-15T00:38:44.526Z,84.94
2018-01-15T00:41:14.110Z,85.04
2018-01-15T00:43:40.134Z,84.81
2018-01-15T00:46:07.838Z,84.69
2018-01-15T00:48:33.757Z,84.77
2018-01-15T00:51:04.178Z,84.81
2018-01-15T00:53:30.140Z,84.91
2018-01-15T00:55:57.570Z,84.92
2018-01-15T00:58:23.576Z,84.79
2018-01-15T01:00:53.142Z,85.20
2018-01-15T01:03:19.163Z,84.94
2018-01-15T01:05:45.151Z,84.87
2018-01-15T01:08:11.105Z,84.99
2018-01-15T01:10:37.115Z,84.99
2018-01-15T01:13:04.288Z,85.03
2018-01-15T01:15:30.291Z,85.21
2018-01-15T01:17:58.561Z,85.28
2018-01-15T01:20:24.504Z,85.39
2018-01-15T01:22:53.100Z,85.23
2018-01-15T01:25:19.077Z,85.45
2018-01-15T01:27:48.281Z,85.48
2018-01-15T01:30:14.212Z,85.49
2018-01-15T01:32:44.199Z,85.08
2018-01-15T01:35:10.157Z,84.90
2018-01-15T01:37:37.388Z,84.83
2018-01-15T01:40:03.411Z,85.01
2018-01-15T01:42:29.380Z,85.48
2018-01-15T01:44:55.414Z,85.41
2018-01-15T01:47:21.548Z,85.46
2018-01-15T01:49:49.293Z,85.27
2018-01-15T01:52:15.222Z,85.40
2018-01-15T01:54:44.845Z,85.44
2018-01-15T01:57:10.771Z,85.42
2018-01-15T01:59:38.939Z,85.36
2018-01-15T02:02:04.890Z,85.50
2018-01-15T02:04:34.609Z,85.95
2018-01-15T02:07:00.568Z,86.36
2018-01-15T02:09:29.820Z,86.32
2018-01-15T02:11:55.745Z,86.34
2018-01-15T02:14:22.815Z,86.15
2018-01-15T02:16:48.773Z,86.14
2018-01-15T02:19:14.691Z,86.19
2018-01-15T02:21:40.618Z,86.25
2018-01-15T02:24:06.527Z,86.05
2018-01-15T02:26:34.273Z,86.04
2018-01-15T02:29:00.220Z,85.66
2018-01-15T02:31:30.238Z,85.70
2018-01-15T02:33:56.247Z,85.80
2018-01-15T02:36:25.624Z,85.41
2018-01-15T02:38:51.593Z,85.45
2018-01-15T02:41:18.692Z,85.36
2018-01-15T02:43:44.611Z,85.25
2018-01-15T02:46:14.214Z,85.13
2018-01-15T02:48:40.191Z,85.25
2018-01-15T02:51:07.898Z,85.41
2018-01-15T02:53:33.943Z,85.27
2018-01-15T02:55:59.877Z,85.15
2018-01-15T02:58:25.873Z,85.15
2018-01-15T03:00:51.853Z,85.04
2018-01-15T03:03:19.536Z,84.96
2018-01-15T03:05:45.565Z,84.78
2018-01-15T03:08:14.330Z,85.33
2018-01-15T03:10:40.297Z,85.55
2018-01-15T03:13:08.890Z,84.55
2018-01-15T03:15:34.836Z,84.72
2018-01-15T03:18:03.632Z,85.19
2018-01-15T03:20:29.593Z,85.53
2018-01-15T03:22:58.982Z,85.56
2018-01-15T03:25:24.990Z,85.57
2018-01-15T03:27:54.954Z,85.44
2018-01-15T03:30:20.909Z,85.22
2018-01-15T03:32:46.872Z,85.19
2018-01-15T03:35:12.870Z,85.35
2018-01-15T03:37:38.861Z,84.89
2018-01-15T03:40:05.717Z,84.48
2018-01-15T03:42:31.691Z,84.20
2018-01-15T03:45:01.227Z,83.79
2018-01-15T03:47:27.241Z,83.81
2018-01-15T03:49:54.726Z,84.12
2018-01-15T03:52:20.688Z,83.91
2018-01-15T03:54:50.016Z,83.51
2018-01-15T03:57:15.962Z,83.52
2018-01-15T03:59:43.685Z,83.81
2018-01-15T04:02:09.669Z,84.07
2018-01-15T04:04:38.533Z,83.77
2018-01-15T04:07:04.481Z,83.14
2018-01-15T04:09:30.497Z,83.33
2018-01-15T04:11:56.529Z,84.12
2018-01-15T04:14:22.510Z,84.02
2018-01-15T04:16:50.181Z,84.23
2018-01-15T04:19:16.202Z,84.03
2018-01-15T04:21:45.981Z,83.78
2018-01-15T04:24:12.019Z,84.50
2018-01-15T04:26:39.949Z,84.44
2018-01-15T04:29:05.916Z,84.36
2018-01-15T04:31:35.165Z,84.18
2018-01-15T04:34:01.236Z,83.88
2018-01-15T04:36:29.672Z,83.70
2018-01-15T04:38:55.783Z,84.07
2018-01-15T04:41:25.557Z,83.86
2018-01-15T04:43:51.547Z,83.57
2018-01-15T04:46:17.512Z,83.65
2018-01-15T04:48:43.432Z,83.57
2018-01-15T04:51:09.408Z,83.82
2018-01-15T04:53:36.564Z,84.04
2018-01-15T04:56:02.539Z,83.91
2018-01-15T04:58:31.465Z,83.86
2018-01-15T05:00:57.443Z,83.76
2018-01-15T05:03:25.233Z,83.42
2018-01-15T05:05:51.202Z,82.97
2018-01-15T05:08:20.807Z,82.82
2018-01-15T05:10:46.837Z,83.15
2018-01-15T05:13:16.009Z,82.92
2018-01-15T05:15:41.980Z,82.92
2018-01-15T05:18:09.195Z,82.58
2018-01-15T05:20:35.171Z,83.17
2018-01-15T05:23:01.171Z,83.05
2018-01-15T05:25:27.132Z,82.87
2018-01-15T05:27:53.152Z,82.84
2018-01-15T05:30:22.019Z,82.50
2018-01-15T05:32:47.972Z,82.20
2018-01-15T05:35:15.775Z,81.96
2018-01-15T05:37:41.740Z,81.82
2018-01-15T05:40:10.144Z,82.32
2018-01-15T05:42:36.128Z,82.64
2018-01-15T05:45:06.685Z,82.84
2018-01-15T05:47:32.694Z,82.78
2018-01-15T05:50:00.475Z,83.00
2018-01-15T05:52:26.450Z,82.83
2018-01-15T05:54:56.369Z,82.89
2018-01-15T05:57:22.406Z,82.72
2018-01-15T05:59:48.418Z,82.81
2018-01-15T06:02:14.376Z,82.44
2018-01-15T06:04:40.324Z,82.39
2018-01-15T06:07:06.365Z,82.58
2018-01-15T06:09:32.308Z,82.64
2018-01-15T06:12:01.600Z,82.61
2018-01-15T06:14:27.602Z,82.83
2018-01-15T06:16:57.091Z,82.82
2018-01-15T06:19:23.069Z,82.71
2018-01-15T06:21:50.374Z,83.38
2018-01-15T06:24:16.336Z,83.72
2018-01-15T06:26:44.893Z,84.19
2018-01-15T06:29:10.820Z,84.35
2018-01-15T06:31:39.570Z,84.31
2018-01-15T06:34:05.546Z,84.25
2018-01-15T06:36:31.476Z,84.44
2018-01-15T06:38:57.430Z,84.35
2018-01-15T06:41:23.450Z,84.56
2018-01-15T06:43:52.998Z,84.60
2018-01-15T06:46:19.002Z,84.66
2018-01-15T06:48:46.549Z,84.91
2018-01-15T06:51:12.658Z,85.23
2018-01-15T06:53:42.124Z,85.02
2018-01-15T06:56:08.154Z,85.02
2018-01-15T06:58:37.718Z,85.20
2018-01-15T07:01:03.693Z,85.14
2018-01-15T07:03:31.205Z,84.97
2018-01-15T07:05:57.240Z,84.98
2018-01-15T07:08:25.440Z,85.02
2018-01-15T07:10:51.388Z,84.87
2018-01-15T07:13:17.454Z,84.62
2018-01-15T07:15:43.454Z,84.32
2018-01-15T07:18:09.471Z,84.06
2018-01-15T07:20:38.912Z,84.09
2018-01-15T07:23:04.880Z,83.65
2018-01-15T07:25:32.378Z,83.94
2018-01-15T07:27:58.325Z,84.25
2018-01-15T07:30:27.582Z,84.41
2018-01-15T07:32:53.586Z,84.33
2018-01-15T07:35:22.882Z,84.06
2018-01-15T07:37:48.881Z,84.04
2018-01-15T07:40:16.849Z,83.84
2018-01-15T07:42:42.779Z,83.41
2018-01-15T07:45:10.522Z,83.05
2018-01-15T07:47:36.537Z,82.04
2018-01-15T07:50:02.508Z,80.28
2018-01-15T07:52:28.496Z,79.90
2018-01-15T07:54:54.490Z,79.56
2018-01-15T07:57:22.258Z,79.82
2018-01-15T07:59:48.217Z,80.08
2018-01-15T08:02:17.282Z,78.03
2018-01-15T08:04:43.244Z,74.95
2018-01-15T08:07:12.389Z,72.65
2018-01-15T08:09:38.402Z,68.99
2018-01-15T08:12:07.906Z,64.96
2018-01-15T08:14:33.904Z,61.90
2018-01-15T08:17:01.267Z,60.85
2018-01-15T08:19:27.286Z,58.29
2018-01-15T08:21:57.001Z,56.07
2018-01-15T08:24:22.931Z,55.01
2018-01-15T08:26:48.916Z,53.55
2018-01-15T08:29:14.979Z,53.39
2018-01-15T08:31:40.973Z,53.98
2018-01-15T08:34:08.264Z,55.54
2018-01-15T08:36:34.268Z,59.20
2018-01-15T08:39:03.499Z,62.70
2018-01-15T08:41:29.484Z,64.15
2018-01-15T08:43:58.770Z,64.69
2018-01-15T08:46:24.778Z,62.50
2018-01-15T08:48:51.873Z,58.81
2018-01-15T08:51:17.857Z,60.11
2018-01-15T08:53:47.609Z,63.32
2018-01-15T08:56:13.540Z,65.37
2018-01-15T08:58:41.386Z,67.67
2018-01-15T09:01:07.360Z,68.85
2018-01-15T09:03:33.314Z,68.82
2018-01-15T09:05:59.315Z,70.24
2018-01-15T09:08:25.275Z,71.19
2018-01-15T09:10:54.236Z,72.14
2018-01-15T09:13:20.223Z,73.20
2018-01-15T09:15:47.963Z,73.86
2018-01-15T09:18:13.948Z,74.31
2018-01-15T09:20:42.461Z,74.74
2018-01-15T09:23:08.487Z,75.42
2018-01-15T09:25:37.801Z,75.64
2018-01-15T09:28:03.781Z,75.57
2018-01-15T09:30:31.993Z,75.69
2018-01-15T09:32:57.999Z,75.75
2018-01-15T09:35:27.561Z,75.70
2018-01-15T09:37:53.584Z,75.36
2018-01-15T09:40:19.571Z,75.43
2018-01-15T09:42:45.531Z,75.15
2018-01-15T09:45:11.582Z,74.61
2018-01-15T09:47:39.110Z,74.66
2018-01-15T09:50:05.136Z,74.69
2018-01-15T09:52:34.050Z,74.23
2018-01-15T09:55:00.079Z,73.52
2018-01-15T09:57:27.969Z,73.98
2018-01-15T09:59:53.932Z,73.67
2018-01-15T10:02:23.263Z,73.38
2018-01-15T10:04:49.208Z,73.54
2018-01-15T10:07:18.273Z,73.83
2018-01-15T10:09:44.299Z,73.25
2018-01-15T10:12:13.641Z,73.17
2018-01-15T10:14:39.634Z,73.07
2018-01-15T10:17:05.648Z,73.53
2018-01-15T10:19:31.678Z,73.45
2018-01-15T10:21:57.678Z,73.80
2018-01-15T10:24:23.644Z,73.33
2018-01-15T10:26:49.628Z,72.69
2018-01-15T10:29:19.462Z,72.49
2018-01-15T10:31:45.421Z,72.94
2018-01-15T10:34:13.951Z,72.75
2018-01-15T10:36:40.044Z,72.63
2018-01-15T10:39:08.822Z,72.40
2018-01-15T10:41:34.854Z,72.66
2018-01-15T10:44:04.146Z,72.69
2018-01-15T10:46:30.096Z,72.08
2018-01-15T10:48:57.362Z,72.60
2018-01-15T10:51:23.361Z,73.07
2018-01-15T10:53:49.349Z,73.35
2018-01-15T10:56:15.388Z,72.67
2018-01-15T10:58:41.389Z,72.62
2018-01-15T11:04:06.298Z,72.84
2018-01-15T11:06:32.285Z,72.73
2018-01-15T11:08:58.251Z,72.48
2018-01-15T11:11:24.237Z,72.62
2018-01-15T11:13:50.209Z,72.84
2018-01-15T11:16:16.154Z,72.46
2018-01-15T11:18:42.078Z,72.25
2018-01-15T11:21:07.990Z,72.09
2018-01-15T11:23:34.089Z,71.39
2018-01-15T11:26:00.132Z,71.49
2018-01-15T11:28:26.111Z,70.74
2018-01-15T11:30:52.098Z,69.75
2018-01-15T11:33:18.155Z,67.93
2018-01-15T11:35:44.150Z,64.96
2018-01-15T11:38:10.142Z,63.76
2018-01-15T11:40:36.072Z,62.71
2018-01-15T11:43:02.082Z,61.98
2018-01-15T11:45:28.113Z,63.14
2018-01-15T11:47:54.132Z,63.02
2018-01-15T11:50:20.125Z,62.31
2018-01-15T11:52:46.056Z,63.67
2018-01-15T11:55:11.984Z,65.79
2018-01-15T11:57:37.919Z,66.59
2018-01-15T12:00:03.865Z,67.09
2018-01-15T12:02:29.803Z,66.27
2018-01-15T12:04:55.806Z,65.97
2018-01-15T12:07:21.769Z,65.92
2018-01-15T12:09:47.756Z,65.67
2018-01-15T12:12:13.728Z,65.52
2018-01-15T12:14:39.741Z,65.74
2018-01-15T12:17:05.673Z,65.87
2018-01-15T12:19:35.399Z,65.38
2018-01-15T12:24:29.606Z,65.59
2018-01-15T12:26:55.609Z,65.99
2018-01-15T12:29:24.980Z,66.03
2018-01-15T12:31:50.965Z,66.52
2018-01-15T12:34:18.659Z,66.75
2018-01-15T12:36:44.671Z,67.12
2018-01-15T12:39:14.017Z,67.30
2018-01-15T12:41:40.028Z,68.00
2018-01-15T12:44:06.071Z,68.27
2018-01-15T12:46:32.076Z,68.33
2018-01-15T12:48:57.999Z,68.59
2018-01-15T12:51:25.468Z,69.25
2018-01-15T12:53:51.510Z,69.23
2018-01-15T12:56:21.384Z,69.02
2018-01-15T12:58:47.335Z,68.55
2018-01-15T13:01:15.152Z,69.30
2018-01-15T13:03:41.105Z,68.93
2018-01-15T13:06:10.210Z,69.23
2018-01-15T13:11:35.126Z,69.49
2018-01-15T13:14:01.162Z,70.04
2018-01-15T13:16:27.186Z,70.34
2018-01-15T13:18:53.149Z,70.48
2018-01-15T13:21:19.097Z,70.56
2018-01-15T13:23:45.059Z,70.80
2018-01-15T13:26:11.106Z,70.78
2018-01-15T13:28:37.083Z,70.83
2018-01-15T13:31:03.130Z,70.96
2018-01-15T13:33:29.119Z,71.58
2018-01-15T13:35:55.062Z,71.81
2018-01-15T13:38:21.073Z,71.84
2018-01-15T13:40:47.048Z,72.27
2018-01-15T13:43:13.044Z,72.35
2018-01-15T13:45:39.021Z,72.38
2018-01-15T13:48:05.010Z,72.81
2018-01-15T13:50:30.961Z,72.77
2018-01-15T13:52:56.986Z,72.82
2018-01-15T13:55:22.960Z,72.94
2018-01-15T13:57:48.959Z,72.86
2018-01-15T14:00:14.934Z,72.62
2018-01-15T14:02:40.904Z,72.70
2018-01-15T14:05:06.923Z,72.71
2018-01-15T14:07:32.935Z,72.58
2018-01-15T14:09:58.910Z,72.61
2018-01-15T14:12:24.915Z,72.49
2018-01-15T14:14:50.942Z,72.56
2018-01-15T14:17:16.912Z,72.27
2018-01-15T14:19:42.889Z,72.07
2018-01-15T14:22:08.850Z,72.13
2018-01-15T14:24:34.796Z,71.72
2018-01-15T14:27:00.798Z,71.78
2018-01-15T14:29:29.218Z,71.98
2018-01-15T14:31:55.274Z,71.91
2018-01-15T14:34:21.253Z,71.50
2018-01-15T14:36:47.270Z,71.58
2018-01-15T14:39:13.224Z,71.99
2018-01-15T14:41:42.772Z,71.93
2018-01-15T14:44:08.814Z,72.33
2018-01-15T14:46:35.939Z,72.03
2018-01-15T14:49:01.887Z,72.31
2018-01-15T14:51:31.288Z,72.49
2018-01-15T14:53:57.318Z,72.58
2018-01-15T14:56:26.578Z,72.89
2018-01-15T14:58:52.546Z,72.99
2018-01-15T15:01:19.920Z,72.73
2018-01-15T15:03:45.929Z,72.86
2018-01-15T15:06:15.025Z,72.86
2018-01-15T15:08:41.006Z,72.96
2018-01-15T15:11:06.983Z,73.08
2018-01-15T15:13:32.985Z,72.95
2018-01-15T15:15:58.993Z,73.17
2018-01-15T15:18:26.862Z,73.24
2018-01-15T15:20:52.902Z,72.91
2018-01-15T15:23:21.975Z,72.98
2018-01-15T15:25:47.967Z,72.93
2018-01-15T15:28:15.770Z,73.25
2018-01-15T15:30:41.772Z,73.09
2018-01-15T15:33:11.055Z,73.54
2018-01-15T15:35:37.022Z,73.56
2018-01-15T15:38:05.704Z,73.62
2018-01-15T15:40:31.671Z,73.59
2018-01-15T15:43:01.328Z,73.30
2018-01-15T15:45:27.237Z,72.87
2018-01-15T15:47:53.197Z,72.69
2018-01-15T15:50:19.181Z,72.47
2018-01-15T15:52:45.205Z,72.11
2018-01-15T15:55:11.497Z,72.26
2018-01-15T15:57:37.495Z,72.09
2018-01-15T16:00:06.860Z,72.29
2018-01-15T16:02:32.803Z,72.11
2018-01-15T16:05:02.587Z,72.09
2018-01-15T16:07:28.618Z,71.77
2018-01-15T16:09:56.166Z,71.78
2018-01-15T16:12:22.140Z,71.85
2018-01-15T16:14:51.201Z,71.77
2018-01-15T16:17:17.201Z,71.42
2018-01-15T16:19:46.108Z,71.55
2018-01-15T16:22:24.466Z,71.42
2018-01-15T16:24:50.461Z,71.56
2018-01-15T16:27:16.460Z,71.82
2018-01-15T16:29:42.446Z,71.64
2018-01-15T16:32:08.435Z,71.96
2018-01-15T16:34:34.513Z,71.53
2018-01-15T16:37:00.445Z,71.70
2018-01-15T16:39:26.478Z,71.94
2018-01-15T16:41:52.494Z,71.83
2018-01-15T16:44:18.471Z,71.43
2018-01-15T16:46:44.439Z,71.39
2018-01-15T16:49:10.426Z,71.24
2018-01-15T16:51:36.464Z,71.35
2018-01-15T16:54:02.450Z,71.15
2018-01-15T16:56:30.523Z,71.18
2018-01-15T16:58:56.514Z,71.29
2018-01-15T17:01:22.521Z,71.64
2018-01-15T17:03:48.550Z,71.47
2018-01-15T17:06:14.540Z,71.43
2018-01-15T17:08:43.527Z,71.41
2018-01-15T17:11:09.570Z,71.58
2018-01-15T17:13:37.183Z,71.91
2018-01-15T17:16:03.145Z,71.76
2018-01-15T17:18:33.047Z,71.60
2018-01-15T17:20:59.025Z,71.69
2018-01-15T17:23:27.055Z,71.77
2018-01-15T17:25:53.042Z,71.66
2018-01-15T17:28:22.096Z,71.79
2018-01-15T17:30:48.048Z,71.92
2018-01-15T17:33:15.966Z,71.89
2018-01-15T17:35:41.896Z,72.00
2018-01-15T17:38:07.843Z,72.20
2018-01-15T17:40:33.883Z,71.94
2018-01-15T17:42:59.890Z,72.15
2018-01-15T17:45:28.972Z,72.60
2018-01-15T17:47:54.922Z,72.52
2018-01-15T17:50:23.980Z,72.42
2018-01-15T17:52:49.993Z,72.38
2018-01-15T17:55:17.374Z,72.38
2018-01-15T17:57:43.414Z,72.30
2018-01-15T18:00:12.890Z,73.46
2018-01-15T18:02:38.873Z,72.94
2018-01-15T18:05:06.358Z,74.21
2018-01-15T18:07:32.414Z,74.51
2018-01-15T18:10:01.698Z,75.14
2018-01-15T18:12:27.687Z,75.38
2018-01-15T18:14:53.721Z,76.37
2018-01-15T18:17:19.724Z,76.53
2018-01-15T18:19:45.742Z,77.41
2018-01-15T18:22:13.078Z,77.27
2018-01-15T18:24:39.065Z,78.59
2018-01-15T18:27:08.762Z,78.18
2018-01-15T18:29:34.709Z,79.25
2018-01-15T18:32:02.604Z,80.22
2018-01-15T18:34:28.633Z,80.53
2018-01-15T18:36:58.283Z,81.12
2018-01-15T18:39:24.243Z,82.19
2018-01-15T18:41:51.619Z,82.44
2018-01-15T18:44:17.599Z,83.98
2018-01-15T18:46:47.145Z,83.51
2018-01-15T18:49:13.162Z,84.32
2018-01-15T18:51:39.104Z,84.24
2018-01-15T18:54:05.135Z,85.08
2018-01-15T18:56:31.116Z,85.14
2018-01-15T18:58:58.306Z,85.56
2018-01-15T19:01:24.229Z,85.95
2018-01-15T19:03:53.729Z,85.99
2018-01-15T19:06:19.668Z,86.15
2018-01-15T19:08:48.588Z,86.69
2018-01-15T19:11:14.573Z,87.49
2018-01-15T19:13:42.140Z,87.51
2018-01-15T19:16:08.141Z,87.65
2018-01-15T19:18:37.524Z,87.74
2018-01-15T19:21:03.509Z,88.13
2018-01-15T19:23:32.874Z,88.36
2018-01-15T19:25:58.854Z,88.09
2018-01-15T19:28:24.839Z,88.40
2018-01-15T19:30:50.823Z,88.63
2018-01-15T19:33:16.829Z,88.98
2018-01-15T19:35:49.403Z,88.91
2018-01-15T19:38:17.358Z,88.82
2018-01-15T19:40:43.436Z,89.02
2018-01-15T19:46:18.239Z,89.78
2018-01-15T19:48:50.314Z,90.02
2018-01-15T19:51:22.278Z,90.12
2018-01-15T19:53:54.355Z,90.45
2018-01-15T19:56:26.317Z,90.38
2018-01-15T20:02:01.282Z,90.76
2018-01-15T20:04:33.299Z,90.81
2018-01-15T20:07:05.359Z,91.10
2018-01-15T20:09:37.457Z,91.61
2018-01-15T20:12:03.488Z,91.21
2018-01-15T20:14:29.526Z,90.96
2018-01-15T20:16:55.515Z,91.41
2018-01-15T20:19:21.479Z,91.37
2018-01-15T20:21:47.498Z,91.54
2018-01-15T20:24:13.471Z,91.60
2018-01-15T20:26:39.430Z,91.53
2018-01-15T20:29:05.412Z,91.33
2018-01-15T20:31:31.388Z,91.46
2018-01-15T20:33:57.394Z,91.63
2018-01-15T20:36:23.348Z,91.67
2018-01-15T20:38:49.291Z,91.69
2018-01-15T20:41:15.255Z,91.71
2018-01-15T20:43:41.181Z,91.98
2018-01-15T20:46:07.177Z,92.11
2018-01-15T20:48:33.157Z,92.10
2018-01-15T20:50:59.140Z,91.99
2018-01-15T20:53:25.128Z,92.16
2018-01-15T20:55:51.050Z,92.50
2018-01-15T20:58:17.062Z,91.85
2018-01-15T21:00:43.091Z,91.95
2018-01-15T21:03:09.085Z,91.69
2018-01-15T21:05:34.991Z,91.56
2018-01-15T21:08:00.986Z,91.34
2018-01-15T21:10:26.945Z,91.17
2018-01-15T21:12:52.942Z,91.01
2018-01-15T21:15:18.955Z,90.72
2018-01-15T21:17:44.970Z,91.09
2018-01-15T21:20:10.944Z,91.00
2018-01-15T21:22:36.989Z,91.30
2018-01-15T21:25:03.014Z,90.80
2018-01-15T21:30:19.158Z,90.76
2018-01-15T21:32:45.126Z,90.35
2018-01-15T21:35:11.117Z,89.99
2018-01-15T21:37:37.075Z,89.70
2018-01-15T21:40:03.040Z,89.38
2018-01-15T21:42:29.122Z,88.82
2018-01-15T21:44:55.114Z,89.51
2018-01-15T21:47:25.408Z,89.71
2018-01-15T21:49:51.347Z,89.85
2018-01-15T21:52:17.322Z,89.09
2018-01-15T21:54:43.332Z,89.05
2018-01-15T21:57:09.379Z,88.55
2018-01-15T21:59:35.332Z,88.31
2018-01-15T22:02:01.374Z,87.40
2018-01-15T22:04:27.364Z,87.24
2018-01-15T22:06:53.310Z,86.68
2018-01-15T22:09:19.363Z,86.87
2018-01-15T22:11:45.386Z,87.10
2018-01-15T22:14:11.435Z,87.07
2018-01-15T22:16:37.410Z,86.90
2018-01-15T22:19:03.482Z,86.83
2018-01-15T22:21:29.511Z,87.24
2018-01-15T22:23:55.518Z,87.03
2018-01-15T22:26:21.458Z,87.04
2018-01-15T22:28:47.494Z,86.60
2018-01-15T22:31:13.427Z,86.52
2018-01-15T22:33:39.443Z,86.86
2018-01-15T22:36:05.430Z,87.42
2018-01-15T22:38:31.470Z,88.14
2018-01-15T22:40:57.492Z,87.81
2018-01-15T22:43:23.454Z,88.72
2018-01-15T22:45:49.440Z,88.63
2018-01-15T22:48:15.436Z,88.72
2018-01-15T22:50:41.441Z,88.55
2018-01-15T22:53:07.465Z,88.23
2018-01-15T22:55:33.438Z,88.27
2018-01-15T22:57:59.480Z,88.60
2018-01-15T23:00:25.468Z,88.88
2018-01-15T23:02:51.480Z,88.90
2018-01-15T23:05:17.505Z,89.19
2018-01-15T23:07:43.608Z,88.64
2018-01-15T23:10:09.534Z,88.97
2018-01-15T23:12:35.513Z,88.43
2018-01-15T23:15:05.353Z,88.88
2018-01-15T23:17:31.337Z,89.27
2018-01-15T23:20:00.399Z,89.77
2018-01-15T23:22:26.420Z,90.45
2018-01-15T23:24:54.342Z,90.95
2018-01-15T23:27:20.259Z,91.02
2018-01-15T23:29:46.290Z,91.36
2018-01-15T23:32:12.304Z,91.47
2018-01-15T23:34:38.367Z,91.12
2018-01-15T23:37:05.362Z,90.83
2018-01-15T23:39:31.470Z,91.03
2018-01-15T23:42:01.267Z,91.14
2018-01-15T23:44:27.249Z,91.47
2018-01-15T23:46:55.532Z,91.03
2018-01-15T23:49:21.579Z,91.16
2018-01-15T23:51:51.663Z,91.05
2018-01-15T23:54:30.258Z,91.15
2018-01-15T23:56:57.087Z,90.86
2018-01-15T23:59:23.052Z,90.82
